KTEX/TEX METAR and TAF weather

Enter ICAO airport designator
Station Type Date Time Source
KTEX METAR 2021/05/15 01:55 UTC NOAA

KTEX 150155Z AUTO 23005KT 10SM CLR 17/M15 A3021 RMK AO2


Station Type Date Time Source
KTEX Decoded METAR 2021/05/15 01:55 UTC NOAA

Telluride, Telluride Regional Airport, CO, United States (KTEX) 37-57-14N 107-54-31W
May 14, 2021 - 09:55 PM EDT / 2021.05.15 0155 UTC
Wind: from the SW (230 degrees) at 6 MPH (5 KT):0
Visibility: 10 mile(s):0
Sky conditions: clear
Temperature: 62 F (17 C)
Dew Point: 5 F (-15 C)
Relative Humidity: 9%
Pressure (altimeter): 30.21 in. Hg (1023 hPa)
ob: KTEX 150155Z AUTO 23005KT 10SM CLR 17/M15 A3021 RMK AO2
cycle: 2

Station Type Date Time Source
KTEX TAF 2021/05/14 22:42 UTC NOAA

TAF
AMD KTEX 142141Z 1422/1518 27015G25KT P6SM SCT110
FM150200 23008KT P6SM FEW250
FM150600 12007KT P6SM FEW250

Example: see airport list